Time;durP1;ratioP1;P1;durP2;ratioP2;P2;SDS_P1;SDS_P2;PMS_P1;PMS_P2;Temp;Humidity;BMP_temperature;BMP_pressure;BME280_temperature;BME280_humidity;BME280_pressure;Samples;Min_cycle;Max_cycle;Signal;HPM_P1;HPM_P2
2023/09/08 00:00:12;;;;;;;9.20;7.10;;;16.40;99.90;;;;;;5014353;28;20204;-79
2023/09/08 00:02:39;;;;;;;11.48;7.90;;;16.50;99.90;;;;;;5015489;28;20292;-79
2023/09/08 00:05:06;;;;;;;9.07;7.07;;;16.70;99.90;;;;;;5015236;28;20220;-79
2023/09/08 00:07:33;;;;;;;13.65;8.10;;;16.50;99.90;;;;;;5016005;28;20557;-79
2023/09/08 00:10:00;;;;;;;10.18;7.18;;;16.50;99.90;;;;;;5015700;28;20573;-79
2023/09/08 00:12:28;;;;;;;10.85;8.35;;;16.60;99.90;;;;;;5030399;28;20196;-79
2023/09/08 00:14:55;;;;;;;9.55;7.07;;;16.50;99.90;;;;;;5035457;28;20230;-80
2023/09/08 00:17:21;;;;;;;10.68;7.43;;;16.30;99.90;;;;;;5034800;28;20322;-80
2023/09/08 00:19:48;;;;;;;13.02;7.60;;;16.10;99.90;;;;;;5022867;28;20831;-79
2023/09/08 00:22:15;;;;;;;10.45;7.35;;;16.00;99.90;;;;;;5015022;28;20208;-79
2023/09/08 00:24:42;;;;;;;10.77;8.02;;;16.00;99.90;;;;;;5015229;28;20236;-80
2023/09/08 00:27:09;;;;;;;14.18;7.80;;;15.70;99.90;;;;;;5013899;28;20779;-80
2023/09/08 00:29:37;;;;;;;11.20;7.25;;;15.70;99.90;;;;;;5015600;28;20218;-79
2023/09/08 00:32:05;;;;;;;11.00;8.00;;;15.70;99.90;;;;;;5014945;28;20637;-80
2023/09/08 00:34:31;;;;;;;10.73;7.95;;;15.90;99.90;;;;;;5015507;28;20222;-80
2023/09/08 00:37:00;;;;;;;9.25;7.55;;;15.90;99.90;;;;;;5015257;28;20209;-79
2023/09/08 00:39:27;;;;;;;11.65;7.88;;;15.90;99.90;;;;;;5015458;28;20228;-79
2023/09/08 00:41:53;;;;;;;13.65;8.38;;;15.90;99.90;;;;;;5015385;28;20201;-80
2023/09/08 00:44:20;;;;;;;11.68;7.80;;;16.00;99.90;;;;;;5021065;28;20287;-80
2023/09/08 00:46:48;;;;;;;10.13;7.50;;;16.00;99.90;;;;;;5035395;28;20840;-79
2023/09/08 00:49:15;;;;;;;11.57;7.80;;;15.50;99.90;;;;;;5035771;28;20843;-80
2023/09/08 00:51:42;;;;;;;10.98;7.97;;;14.60;99.90;;;;;;5016275;28;20208;-79
2023/09/08 00:54:09;;;;;;;11.45;7.72;;;14.60;99.90;;;;;;5020577;28;20211;-79
2023/09/08 00:56:37;;;;;;;12.70;8.43;;;14.50;99.90;;;;;;5014243;28;20235;-79
2023/09/08 00:59:05;;;;;;;10.25;8.30;;;14.40;99.90;;;;;;5015098;28;20307;-79
2023/09/08 01:01:34;;;;;;;10.95;7.57;;;14.50;99.90;;;;;;5015391;28;20547;-78
2023/09/08 01:04:02;;;;;;;12.77;8.63;;;14.70;99.90;;;;;;5015230;28;20204;-79
2023/09/08 01:06:32;;;;;;;11.80;7.55;;;14.70;99.90;;;;;;5015213;28;20208;-79
2023/09/08 01:08:59;;;;;;;11.82;8.27;;;14.90;99.90;;;;;;5015165;28;20271;-79
2023/09/08 01:11:26;;;;;;;11.32;7.72;;;14.80;99.90;;;;;;5015183;28;20550;-80
2023/09/08 01:13:53;;;;;;;10.48;7.88;;;14.60;99.90;;;;;;5015123;28;20220;-79
2023/09/08 01:16:20;;;;;;;11.32;8.02;;;14.70;99.90;;;;;;5014871;28;20612;-79
2023/09/08 01:18:48;;;;;;;11.38;7.85;;;14.90;99.90;;;;;;5015287;28;20699;-79
2023/09/08 01:21:41;;;;;;;13.88;8.05;;;14.70;99.90;;;;;;5015875;28;20207;-79
2023/09/08 01:24:38;;;;;;;10.40;7.85;;;15.00;99.90;;;;;;5015480;28;20212;-79
2023/09/08 01:27:07;;;;;;;11.80;8.15;;;15.00;99.90;;;;;;5017495;28;20224;-79
2023/09/08 01:29:34;;;;;;;9.55;7.78;;;14.80;99.90;;;;;;5030856;28;20223;-79
2023/09/08 01:32:01;;;;;;;10.82;8.00;;;14.60;99.90;;;;;;5016807;28;20205;-78
2023/09/08 01:34:28;;;;;;;12.70;8.38;;;14.20;99.90;;;;;;5017583;28;20225;-79
2023/09/08 01:36:54;;;;;;;10.85;8.00;;;14.20;99.90;;;;;;5018304;28;20188;-80
2023/09/08 01:39:21;;;;;;;11.93;8.13;;;14.30;99.90;;;;;;5019135;28;20291;-79
2023/09/08 01:41:48;;;;;;;11.40;8.00;;;14.30;99.90;;;;;;5018474;28;20207;-79
2023/09/08 01:44:16;;;;;;;9.35;7.38;;;14.10;99.90;;;;;;5018676;28;20211;-79
2023/09/08 01:46:42;;;;;;;10.95;8.25;;;14.20;99.90;;;;;;5018865;28;20200;-80
2023/09/08 01:49:09;;;;;;;13.40;8.35;;;14.20;99.90;;;;;;5019122;28;20200;-80
2023/09/08 01:51:36;;;;;;;10.32;8.35;;;14.40;99.90;;;;;;5018511;28;20295;-79
2023/09/08 01:54:03;;;;;;;12.13;8.80;;;14.50;99.90;;;;;;5018804;28;20211;-80
2023/09/08 01:56:30;;;;;;;11.77;8.95;;;14.30;99.90;;;;;;5019069;28;20215;-80
2023/09/08 01:58:56;;;;;;;12.50;9.02;;;14.30;99.90;;;;;;5019004;28;20201;-80
2023/09/08 02:01:24;;;;;;;13.18;8.90;;;14.20;99.90;;;;;;5018413;28;20670;-80
2023/09/08 02:03:51;;;;;;;10.63;8.50;;;14.40;99.90;;;;;;5019406;28;20204;-79
2023/09/08 02:06:18;;;;;;;10.15;8.25;;;14.40;99.90;;;;;;5018049;28;20230;-79
2023/09/08 02:08:45;;;;;;;13.75;8.82;;;14.50;99.90;;;;;;5018115;28;20228;-78
2023/09/08 02:11:11;;;;;;;14.57;9.30;;;14.50;99.90;;;;;;5017685;28;20228;-80
2023/09/08 02:13:39;;;;;;;12.25;8.20;;;14.40;99.90;;;;;;4998809;28;20224;-82
2023/09/08 02:16:06;;;;;;;14.90;9.15;;;14.40;99.90;;;;;;4998754;28;20233;-80
2023/09/08 02:18:34;;;;;;;12.57;8.60;;;14.50;99.90;;;;;;4998401;28;20208;-79
2023/09/08 02:21:01;;;;;;;11.90;8.80;;;14.50;99.90;;;;;;5011053;28;20234;-79
2023/09/08 02:23:28;;;;;;;12.23;8.45;;;14.40;99.90;;;;;;5028087;28;20208;-79
2023/09/08 02:25:55;;;;;;;12.38;9.07;;;14.30;99.90;;;;;;5035171;28;20223;-79
2023/09/08 02:28:21;;;;;;;12.25;9.45;;;14.30;99.90;;;;;;5027961;28;20311;-79
2023/09/08 02:30:48;;;;;;;13.27;9.00;;;14.20;99.90;;;;;;5016667;28;20210;-79
2023/09/08 02:33:31;;;;;;;11.70;8.55;;;14.20;99.90;;;;;;5028590;28;20290;-80
2023/09/08 02:36:04;;;;;;;11.07;8.00;;;14.10;99.90;;;;;;5017172;28;20220;-80
2023/09/08 02:38:31;;;;;;;11.88;8.43;;;14.20;99.90;;;;;;5037199;28;20203;-80
2023/09/08 02:40:58;;;;;;;12.85;9.50;;;14.30;99.90;;;;;;5037123;28;20200;-78
2023/09/08 02:43:25;;;;;;;11.73;8.77;;;14.30;99.90;;;;;;5037214;28;20271;-79
2023/09/08 02:45:52;;;;;;;12.80;8.98;;;14.10;99.90;;;;;;5020570;28;20220;-79
2023/09/08 02:48:18;;;;;;;10.75;9.30;;;13.90;99.90;;;;;;5017009;28;20706;-79
2023/09/08 02:50:45;;;;;;;14.25;10.60;;;13.50;99.90;;;;;;5016812;28;20207;-79
2023/09/08 02:53:17;;;;;;;12.65;9.48;;;13.20;99.90;;;;;;5016494;28;20196;-80
2023/09/08 02:55:44;;;;;;;11.73;8.93;;;13.20;99.90;;;;;;5016702;28;20221;-80
2023/09/08 02:58:10;;;;;;;12.07;9.07;;;13.50;99.90;;;;;;5017375;28;20211;-80
2023/09/08 03:00:37;;;;;;;11.55;9.07;;;13.80;99.90;;;;;;5016820;28;20201;-81
2023/09/08 03:03:04;;;;;;;12.85;8.68;;;13.90;99.90;;;;;;5031051;28;20199;-80
2023/09/08 03:05:32;;;;;;;12.25;9.40;;;13.70;99.90;;;;;;5027425;28;20635;-79
2023/09/08 03:07:59;;;;;;;13.05;8.45;;;13.60;99.90;;;;;;5017524;28;20220;-80
2023/09/08 03:10:28;;;;;;;11.82;9.07;;;13.60;99.90;;;;;;5017439;28;20358;-80
2023/09/08 03:12:55;;;;;;;12.52;9.95;;;13.70;99.90;;;;;;5026595;28;20249;-79
2023/09/08 03:15:22;;;;;;;12.38;9.10;;;13.50;99.90;;;;;;5036802;28;20578;-80
2023/09/08 03:17:48;;;;;;;13.48;9.57;;;13.50;99.90;;;;;;5037123;28;20688;-79
2023/09/08 03:20:15;;;;;;;15.07;9.05;;;13.50;99.90;;;;;;5036005;28;20198;-80
2023/09/08 03:22:42;;;;;;;11.43;8.45;;;13.40;99.90;;;;;;5023064;28;20716;-80
2023/09/08 03:25:09;;;;;;;12.50;9.30;;;13.00;99.90;;;;;;5035550;28;20223;-80
2023/09/08 03:27:37;;;;;;;12.70;9.85;;;12.60;99.90;;;;;;5035405;28;20227;-78
2023/09/08 03:30:05;;;;;;;11.30;8.60;;;12.80;99.90;;;;;;5035370;28;20204;-81
2023/09/08 03:32:32;;;;;;;14.25;9.50;;;12.90;99.90;;;;;;5034035;28;20660;-80
2023/09/08 03:34:59;;;;;;;11.50;8.82;;;13.10;99.90;;;;;;5032859;28;20215;-83
2023/09/08 03:37:26;;;;;;;12.93;9.23;;;13.10;99.90;;;;;;5036990;28;20299;-80
2023/09/08 03:39:53;;;;;;;14.10;10.02;;;12.90;99.90;;;;;;5036917;28;20200;-83
2023/09/08 03:42:19;;;;;;;17.98;13.35;;;13.00;99.90;;;;;;5036656;28;20206;-83
2023/09/08 03:44:47;;;;;;;18.52;11.35;;;13.20;99.90;;;;;;5036063;28;20226;-82
2023/09/08 03:47:14;;;;;;;15.45;10.13;;;13.40;99.90;;;;;;5037234;28;20211;-82
2023/09/08 03:49:41;;;;;;;13.15;9.55;;;13.40;99.90;;;;;;5036994;28;20218;-83
2023/09/08 03:52:08;;;;;;;13.02;9.35;;;13.50;99.90;;;;;;5022157;28;20215;-81
2023/09/08 03:54:35;;;;;;;13.75;10.48;;;13.50;99.90;;;;;;5000286;28;20225;-81
2023/09/08 03:57:01;;;;;;;14.50;10.27;;;13.50;99.90;;;;;;5016430;28;20204;-82
2023/09/08 03:59:28;;;;;;;14.52;10.52;;;13.60;99.90;;;;;;5005315;28;20207;-82
2023/09/08 04:01:56;;;;;;;14.25;10.18;;;13.60;99.90;;;;;;5010381;28;20289;-81
2023/09/08 04:04:23;;;;;;;15.38;10.38;;;13.60;99.90;;;;;;5009930;28;20216;-81
2023/09/08 04:06:50;;;;;;;15.07;10.70;;;13.70;99.90;;;;;;5005475;28;20235;-81
2023/09/08 04:09:17;;;;;;;15.63;11.17;;;13.70;99.90;;;;;;5012345;28;20229;-81
2023/09/08 04:11:43;;;;;;;14.10;9.88;;;13.60;99.90;;;;;;5014456;28;20200;-82
2023/09/08 04:14:10;;;;;;;12.47;9.87;;;13.00;99.90;;;;;;5016109;28;20200;-83
2023/09/08 04:16:37;;;;;;;16.27;11.35;;;12.90;99.90;;;;;;5017100;28;20211;-83
2023/09/08 04:19:05;;;;;;;15.30;11.53;;;13.00;99.90;;;;;;4979105;28;1098684;-82
2023/09/08 04:21:32;;;;;;;17.38;12.05;;;13.00;99.90;;;;;;5004110;28;20722;-83
2023/09/08 04:23:59;;;;;;;14.23;10.65;;;12.80;99.90;;;;;;5012687;28;20204;-82
2023/09/08 04:26:25;;;;;;;14.68;11.10;;;12.60;99.90;;;;;;5010591;28;20591;-80
2023/09/08 04:28:52;;;;;;;14.63;10.32;;;12.50;99.90;;;;;;5015318;28;20282;-83
2023/09/08 04:31:19;;;;;;;17.20;11.57;;;12.50;99.90;;;;;;5011363;28;20224;-82
2023/09/08 04:33:46;;;;;;;20.63;11.50;;;12.70;99.90;;;;;;5010024;28;20204;-82
2023/09/08 04:36:15;;;;;;;21.80;11.37;;;12.90;99.90;;;;;;5016449;28;20695;-82
2023/09/08 04:38:42;;;;;;;23.40;10.90;;;13.00;99.90;;;;;;5016752;28;20923;-84
2023/09/08 04:41:08;;;;;;;25.42;11.23;;;13.00;99.90;;;;;;5011369;28;20200;-83
2023/09/08 04:43:35;;;;;;;32.40;11.70;;;12.80;99.90;;;;;;5016235;28;20199;-84
2023/09/08 04:46:03;;;;;;;24.80;10.90;;;12.80;99.90;;;;;;5016236;28;20697;-83
2023/09/08 04:48:30;;;;;;;27.33;11.20;;;12.80;99.90;;;;;;5015085;28;20264;-84
2023/09/08 04:50:57;;;;;;;29.88;11.40;;;12.60;99.90;;;;;;5014756;28;20215;-82
2023/09/08 04:53:25;;;;;;;23.43;12.00;;;12.80;99.90;;;;;;5010825;28;20892;-81
2023/09/08 04:55:53;;;;;;;21.13;11.90;;;12.90;99.90;;;;;;5011454;28;20228;-81
2023/09/08 04:58:20;;;;;;;23.23;11.07;;;13.00;99.90;;;;;;5019412;28;20212;-83
2023/09/08 05:00:46;;;;;;;19.47;11.27;;;13.00;99.90;;;;;;5010940;28;20201;-84
2023/09/08 05:03:13;;;;;;;16.97;10.83;;;13.20;99.90;;;;;;5020028;28;20203;-81
2023/09/08 05:05:40;;;;;;;15.30;10.13;;;13.30;99.90;;;;;;5018674;28;20220;-83
2023/09/08 05:08:07;;;;;;;14.60;10.38;;;13.40;99.90;;;;;;5019672;28;20255;-84
2023/09/08 05:10:35;;;;;;;15.57;10.47;;;13.50;99.90;;;;;;5019518;28;20200;-83
2023/09/08 05:13:02;;;;;;;16.00;9.45;;;13.30;99.90;;;;;;5010749;28;20652;-83
2023/09/08 05:15:30;;;;;;;14.07;10.05;;;13.20;99.90;;;;;;5014422;28;20275;-81
2023/09/08 05:17:57;;;;;;;16.13;10.32;;;13.40;99.90;;;;;;5008281;28;20794;-83
2023/09/08 05:20:24;;;;;;;17.70;10.05;;;13.40;99.90;;;;;;5005544;28;20218;-83
2023/09/08 05:22:51;;;;;;;16.45;10.55;;;13.40;99.90;;;;;;5020131;28;20258;-83
2023/09/08 05:25:18;;;;;;;13.50;10.07;;;13.50;99.90;;;;;;5015987;28;20220;-83
2023/09/08 05:27:46;;;;;;;15.60;10.63;;;13.40;99.90;;;;;;4999677;28;20211;-83
2023/09/08 05:30:13;;;;;;;14.25;10.02;;;13.30;99.90;;;;;;5002984;28;20258;-84
2023/09/08 05:32:40;;;;;;;16.48;10.30;;;13.50;99.90;;;;;;5019233;28;20200;-82
2023/09/08 05:35:07;;;;;;;16.58;10.35;;;13.80;99.90;;;;;;5018999;28;20220;-83
2023/09/08 05:37:34;;;;;;;15.77;9.95;;;13.90;99.90;;;;;;5019594;28;20215;-81
2023/09/08 05:40:01;;;;;;;18.35;10.93;;;13.90;99.90;;;;;;5019284;28;20283;-81
2023/09/08 05:42:28;;;;;;;12.95;9.65;;;13.90;99.90;;;;;;5018890;28;20243;-83
2023/09/08 05:44:56;;;;;;;15.88;10.30;;;13.90;99.90;;;;;;5018500;28;20231;-83
2023/09/08 05:47:23;;;;;;;16.15;10.13;;;13.90;99.90;;;;;;5006596;28;20205;-83
2023/09/08 05:49:49;;;;;;;20.05;10.82;;;13.90;99.90;;;;;;5011694;28;20236;-83
2023/09/08 05:52:16;;;;;;;15.73;9.77;;;14.00;99.90;;;;;;5013524;28;20204;-83
2023/09/08 05:54:43;;;;;;;13.13;10.00;;;14.10;99.90;;;;;;5019221;28;20220;-82
2023/09/08 05:57:10;;;;;;;15.35;10.13;;;14.20;99.90;;;;;;5017213;28;20204;-84
2023/09/08 05:59:37;;;;;;;15.38;10.15;;;14.30;99.90;;;;;;5005713;28;20208;-84
2023/09/08 06:02:05;;;;;;;17.95;9.77;;;14.50;99.90;;;;;;5019101;28;20226;-82
2023/09/08 06:04:32;;;;;;;17.27;10.27;;;14.60;99.90;;;;;;5018791;28;20223;-82
2023/09/08 06:06:59;;;;;;;14.85;9.82;;;14.60;99.90;;;;;;5018691;28;20629;-84
2023/09/08 06:09:26;;;;;;;13.07;9.30;;;14.60;99.90;;;;;;5018449;28;20213;-83
2023/09/08 06:11:53;;;;;;;17.73;10.10;;;14.60;99.90;;;;;;5018698;28;20204;-84
2023/09/08 06:14:20;;;;;;;16.55;10.35;;;14.50;99.90;;;;;;4999270;28;20227;-82
2023/09/08 06:16:47;;;;;;;14.50;9.40;;;14.70;99.90;;;;;;4999758;28;20205;-83
2023/09/08 06:19:16;;;;;;;15.07;9.18;;;14.70;99.90;;;;;;5018532;28;20215;-82
2023/09/08 06:21:43;;;;;;;14.60;9.23;;;14.80;99.90;;;;;;5018256;28;20255;-83
2023/09/08 06:24:09;;;;;;;19.25;10.30;;;15.40;99.90;;;;;;5018552;28;20215;-82
2023/09/08 06:26:38;;;;;;;19.85;10.50;;;15.40;99.90;;;;;;5017745;28;20570;-84
2023/09/08 06:29:05;;;;;;;13.20;9.30;;;15.50;99.90;;;;;;5018364;28;20287;-84
2023/09/08 06:31:32;;;;;;;16.77;10.48;;;15.40;99.90;;;;;;5017985;28;20212;-84
2023/09/08 06:33:59;;;;;;;12.68;9.65;;;15.60;99.90;;;;;;5017301;28;20222;-82
2023/09/08 06:36:27;;;;;;;16.20;9.73;;;15.80;99.90;;;;;;5017586;28;20555;-83
2023/09/08 06:38:54;;;;;;;15.23;9.25;;;15.80;99.90;;;;;;5018156;28;20255;-83
2023/09/08 06:41:22;;;;;;;23.55;10.25;;;16.00;99.90;;;;;;4998281;28;20299;-82
2023/09/08 06:43:49;;;;;;;21.73;10.35;;;16.20;99.90;;;;;;5006856;28;20295;-83
2023/09/08 06:46:16;;;;;;;26.15;10.05;;;16.30;99.90;;;;;;5017599;28;20224;-83
2023/09/08 06:48:43;;;;;;;20.60;10.10;;;16.40;99.90;;;;;;5017328;28;20243;-83
2023/09/08 06:51:10;;;;;;;26.27;9.60;;;16.60;99.90;;;;;;5017095;28;20296;-84
2023/09/08 06:53:38;;;;;;;21.33;9.55;;;16.50;99.90;;;;;;5013679;28;20200;-83
2023/09/08 06:56:05;;;;;;;18.52;9.77;;;16.40;99.90;;;;;;5017658;28;20232;-84
2023/09/08 06:58:32;;;;;;;23.52;9.02;;;16.70;99.90;;;;;;5017429;28;20212;-83
2023/09/08 07:00:59;;;;;;;14.77;8.93;;;16.90;99.90;;;;;;5017049;28;20200;-83
2023/09/08 07:03:27;;;;;;;17.50;11.23;;;17.00;99.90;;;;;;5017140;28;20547;-83
2023/09/08 07:05:53;;;;;;;16.30;10.48;;;17.20;99.90;;;;;;5009133;28;20217;-82
2023/09/08 07:08:20;;;;;;;22.98;15.95;;;17.20;99.90;;;;;;5013551;28;20203;-82
2023/09/08 07:10:53;;;;;;;15.38;10.95;;;17.20;99.90;;;;;;5016983;28;20219;-83
2023/09/08 07:13:20;;;;;;;14.18;9.50;;;17.20;99.90;;;;;;5017158;28;20197;-83
2023/09/08 07:15:46;;;;;;;13.40;9.18;;;17.40;99.90;;;;;;5016081;28;20224;-83
2023/09/08 07:18:13;;;;;;;13.75;8.60;;;17.50;99.90;;;;;;5016718;28;20219;-83
2023/09/08 07:20:40;;;;;;;11.55;8.70;;;17.80;99.90;;;;;;5012972;28;20203;-83
2023/09/08 07:23:07;;;;;;;12.70;8.48;;;17.90;99.90;;;;;;5011432;28;20704;-81
2023/09/08 07:25:34;;;;;;;15.52;8.82;;;17.90;99.90;;;;;;5008748;28;20224;-83
2023/09/08 07:28:02;;;;;;;14.25;9.90;;;18.00;99.90;;;;;;5018526;28;20295;-84
2023/09/08 07:30:29;;;;;;;13.90;8.98;;;18.40;99.90;;;;;;5017713;28;20228;-84
2023/09/08 07:32:57;;;;;;;14.15;9.20;;;18.50;99.90;;;;;;5017827;28;20831;-84
2023/09/08 07:35:24;;;;;;;16.85;8.48;;;18.60;99.90;;;;;;5016789;28;20220;-84
2023/09/08 07:37:51;;;;;;;12.15;8.43;;;18.60;99.90;;;;;;5016715;28;20207;-83
2023/09/08 07:40:18;;;;;;;15.73;8.98;;;18.70;99.90;;;;;;5017381;28;20201;-84
2023/09/08 07:42:45;;;;;;;14.82;9.77;;;19.00;99.90;;;;;;5017158;28;20672;-83
2023/09/08 07:45:13;;;;;;;14.30;9.30;;;19.30;99.90;;;;;;5016567;28;20228;-84
2023/09/08 07:47:40;;;;;;;11.90;8.38;;;19.50;99.90;;;;;;5014850;28;20204;-84
2023/09/08 07:50:21;;;;;;;14.32;8.63;;;19.70;99.90;;;;;;5015146;28;20226;-84
2023/09/08 07:52:48;;;;;;;10.32;7.65;;;19.60;99.90;;;;;;5016053;28;20206;-84
2023/09/08 07:55:15;;;;;;;11.63;7.55;;;19.70;99.90;;;;;;5017020;28;20235;-84
2023/09/08 07:57:42;;;;;;;10.10;7.65;;;19.80;99.90;;;;;;5016498;28;20664;-84
2023/09/08 08:00:11;;;;;;;9.05;6.93;;;19.70;99.90;;;;;;5016245;28;20200;-83
2023/09/08 08:02:40;;;;;;;9.02;7.10;;;19.90;99.90;;;;;;5016099;28;20575;-84
2023/09/08 08:05:07;;;;;;;10.25;7.82;;;20.30;99.90;;;;;;5016320;28;20351;-84
2023/09/08 08:07:34;;;;;;;8.40;7.00;;;20.50;99.90;;;;;;5016645;28;20240;-85
2023/09/08 08:10:01;;;;;;;8.77;6.28;;;20.70;99.90;;;;;;5015756;28;20216;-84
2023/09/08 08:12:28;;;;;;;8.95;6.50;;;20.60;99.90;;;;;;5016611;28;20201;-83
2023/09/08 08:14:55;;;;;;;10.40;7.20;;;20.80;99.90;;;;;;5016866;28;20224;-84
2023/09/08 08:17:21;;;;;;;10.65;7.13;;;20.70;99.90;;;;;;5016665;28;20501;-85
2023/09/08 08:19:50;;;;;;;9.40;6.18;;;20.80;99.90;;;;;;5016567;28;20212;-84
2023/09/08 08:22:16;;;;;;;7.47;6.30;;;20.90;99.90;;;;;;5016331;28;20196;-84
2023/09/08 08:24:43;;;;;;;11.30;6.75;;;21.00;99.90;;;;;;5014929;28;20675;-84
2023/09/08 08:27:10;;;;;;;9.43;6.93;;;21.00;99.90;;;;;;5015321;28;20262;-84
2023/09/08 08:29:37;;;;;;;12.25;6.97;;;21.10;99.90;;;;;;5016061;28;20226;-84
2023/09/08 08:32:04;;;;;;;10.20;6.82;;;21.30;99.90;;;;;;5016485;28;20264;-83
2023/09/08 08:34:37;;;;;;;11.18;6.68;;;21.30;99.90;;;;;;5015780;28;20234;-83
2023/09/08 08:37:06;;;;;;;11.18;6.63;;;21.50;99.90;;;;;;5016414;28;20233;-81
2023/09/08 08:39:33;;;;;;;10.57;6.75;;;21.60;99.90;;;;;;5016614;28;20204;-83
2023/09/08 08:42:06;;;;;;;7.53;6.05;;;21.70;99.90;;;;;;5016291;28;20227;-83
2023/09/08 08:44:34;;;;;;;9.57;6.47;;;21.90;99.90;;;;;;5016170;28;20242;-83
2023/09/08 08:47:01;;;;;;;12.43;6.50;;;22.10;99.90;;;;;;5015691;28;20204;-84
2023/09/08 08:49:30;;;;;;;7.20;6.18;;;22.30;99.90;;;;;;5016482;28;20228;-83
2023/09/08 08:51:58;;;;;;;9.73;6.57;;;22.30;99.90;;;;;;5016243;28;20200;-83
2023/09/08 08:54:26;;;;;;;10.25;5.88;;;22.40;99.90;;;;;;5015633;28;20232;-81
2023/09/08 08:56:53;;;;;;;8.45;5.68;;;22.50;99.90;;;;;;5014952;28;20558;-81
2023/09/08 08:59:21;;;;;;;9.55;6.13;;;22.50;99.90;;;;;;5016123;28;20238;-83
2023/09/08 09:01:49;;;;;;;8.15;6.25;;;22.70;99.90;;;;;;5015923;28;20208;-83
2023/09/08 09:04:17;;;;;;;8.65;6.47;;;22.80;99.90;;;;;;5015870;28;20200;-80
2023/09/08 09:06:44;;;;;;;10.48;6.35;;;23.10;99.90;;;;;;5015942;28;20204;-82
2023/09/08 09:09:11;;;;;;;7.78;5.80;;;23.30;99.90;;;;;;5015727;28;20210;-83
2023/09/08 09:11:41;;;;;;;9.35;6.55;;;23.50;99.90;;;;;;5016052;28;20262;-81
2023/09/08 09:14:08;;;;;;;7.00;5.95;;;23.40;99.90;;;;;;5015613;28;20203;-83
2023/09/08 09:16:41;;;;;;;7.70;6.00;;;23.80;99.90;;;;;;5015929;28;20567;-82
2023/09/08 09:19:07;;;;;;;7.20;5.38;;;24.70;99.90;;;;;;5014931;28;20216;-82
2023/09/08 09:21:43;;;;;;;5.88;5.25;;;25.30;99.90;;;;;;5015859;28;20201;-80
2023/09/08 09:24:15;;;;;;;6.68;5.30;;;25.80;99.90;;;;;;5017036;28;20255;-82
2023/09/08 09:26:43;;;;;;;7.70;5.55;;;26.30;99.90;;;;;;5015942;28;20209;-82
2023/09/08 09:29:14;;;;;;;7.90;5.20;;;26.20;99.90;;;;;;5015883;28;20207;-82
2023/09/08 09:31:52;;;;;;;6.93;5.25;;;26.40;99.90;;;;;;5016090;28;20196;-81
2023/09/08 09:34:20;;;;;;;7.25;5.63;;;26.40;99.90;;;;;;5016101;28;20278;-81
2023/09/08 09:36:49;;;;;;;7.45;5.43;;;26.70;99.90;;;;;;5016050;28;20208;-82
2023/09/08 09:39:18;;;;;;;5.80;5.10;;;26.90;99.90;;;;;;5015762;28;20208;-82
2023/09/08 09:41:47;;;;;;;7.68;4.75;;;26.90;99.90;;;;;;5015235;28;20255;-82
2023/09/08 09:44:14;;;;;;;5.72;4.95;;;27.40;99.90;;;;;;5019812;28;20211;-81
2023/09/08 09:46:45;;;;;;;8.95;4.55;;;27.30;99.90;;;;;;5019572;28;20204;-81
2023/09/08 09:49:12;;;;;;;6.30;5.22;;;27.10;99.90;;;;;;5019265;28;20207;-82
2023/09/08 09:51:41;;;;;;;8.52;5.18;;;27.50;99.90;;;;;;5018547;28;20208;-80
2023/09/08 09:54:08;;;;;;;5.47;4.60;;;28.40;99.90;;;;;;5019193;28;20213;-81
2023/09/08 09:56:39;;;;;;;8.52;5.25;;;28.60;99.90;;;;;;5019687;28;20307;-82
2023/09/08 09:59:09;;;;;;;6.07;4.93;;;29.10;99.90;;;;;;5019752;28;20672;-80
2023/09/08 10:01:36;;;;;;;6.15;5.47;;;28.00;99.90;;;;;;5018734;28;20268;-79
2023/09/08 10:04:04;;;;;;;6.82;5.03;;;28.40;99.90;;;;;;5019289;28;20219;-81
2023/09/08 10:06:33;;;;;;;6.85;4.82;;;28.10;99.90;;;;;;5020000;28;20714;-82
2023/09/08 10:09:02;;;;;;;5.68;4.85;;;28.50;99.90;;;;;;5019933;28;20686;-82
2023/09/08 10:11:31;;;;;;;8.27;5.15;;;28.70;99.90;;;;;;5018929;28;20296;-82
2023/09/08 10:14:00;;;;;;;5.03;4.50;;;29.30;99.90;;;;;;5018680;28;20200;-81
2023/09/08 10:16:31;;;;;;;5.45;4.95;;;28.90;99.90;;;;;;5018451;28;20200;-81
2023/09/08 10:19:00;;;;;;;5.97;5.03;;;29.20;99.90;;;;;;5018136;28;20212;-82
2023/09/08 10:21:30;;;;;;;8.88;4.57;;;28.70;99.90;;;;;;5017881;28;20203;-81
2023/09/08 10:24:08;;;;;;;5.55;4.70;;;29.20;99.90;;;;;;5015099;28;20300;-81
2023/09/08 10:26:38;;;;;;;5.22;4.72;;;29.80;99.90;;;;;;5018478;28;20212;-81
2023/09/08 10:29:06;;;;;;;6.68;4.80;;;30.00;99.90;;;;;;5016890;28;20202;-80
2023/09/08 10:31:34;;;;;;;5.78;5.13;;;30.00;99.90;;;;;;5017011;28;20323;-81
2023/09/08 10:34:03;;;;;;;5.25;4.18;;;29.70;97.50;;;;;;5017170;28;20205;-82
2023/09/08 10:36:30;;;;;;;6.13;4.60;;;29.80;89.40;;;;;;5017388;28;20212;-82
2023/09/08 10:39:30;;;;;;;5.70;4.35;;;30.30;97.30;;;;;;5019035;28;20300;-83
2023/09/08 10:42:22;;;;;;;5.28;4.68;;;30.60;46.80;;;;;;5018617;28;20184;-83
2023/09/08 10:45:04;;;;;;;6.82;5.22;;;29.00;20.30;;;;;;5017870;28;20227;-83
2023/09/08 10:47:36;;;;;;;5.75;4.63;;;29.00;42.10;;;;;;5018439;28;20629;-82
2023/09/08 10:50:05;;;;;;;5.85;4.72;;;29.50;46.60;;;;;;5018548;28;20240;-82
2023/09/08 10:52:35;;;;;;;6.82;4.90;;;29.20;40.50;;;;;;5018118;28;20200;-82
2023/09/08 10:55:02;;;;;;;8.30;4.78;;;29.90;12.20;;;;;;5016114;28;20250;-83
2023/09/08 10:57:33;;;;;;;4.82;4.20;;;30.20;1.00;;;;;;5017653;28;20204;-82
2023/09/08 11:00:04;;;;;;;4.55;4.10;;;30.60;1.00;;;;;;5017904;28;20200;-82
2023/09/08 11:02:37;;;;;;;4.78;4.30;;;30.70;1.00;;;;;;5017519;28;20298;-83
2023/09/08 11:05:07;;;;;;;6.60;4.53;;;30.50;1.00;;;;;;5017980;28;20692;-80
2023/09/08 11:07:34;;;;;;;7.20;4.68;;;29.90;1.00;;;;;;5018103;28;20873;-81
2023/09/08 11:10:01;;;;;;;5.95;4.32;;;30.30;1.00;;;;;;5017563;28;20220;-81
2023/09/08 11:12:28;;;;;;;5.30;4.65;;;30.50;1.00;;;;;;5018017;28;20210;-81
2023/09/08 11:14:55;;;;;;;6.90;4.95;;;31.00;1.00;;;;;;5017108;28;20232;-82
2023/09/08 11:17:26;;;;;;;4.70;4.25;;;31.10;1.00;;;;;;5018032;28;20211;-79
2023/09/08 11:19:54;;;;;;;5.13;3.90;;;30.30;1.00;;;;;;5016382;28;20239;-79
2023/09/08 11:22:24;;;;;;;5.20;4.25;;;29.60;1.00;;;;;;5016732;28;20247;-81
2023/09/08 11:24:52;;;;;;;4.20;3.80;;;29.50;1.00;;;;;;5017309;28;20228;-81
2023/09/08 11:27:19;;;;;;;6.22;4.22;;;30.50;1.00;;;;;;5018047;28;20212;-80
2023/09/08 11:29:46;;;;;;;5.38;4.20;;;31.30;1.00;;;;;;5017843;28;20203;-82
2023/09/08 11:32:14;;;;;;;4.57;4.13;;;30.50;1.00;;;;;;5018240;28;20625;-79
2023/09/08 11:34:41;;;;;;;4.18;3.78;;;30.30;1.00;;;;;;5017481;28;20226;-82
2023/09/08 11:37:12;;;;;;;4.20;3.80;;;30.30;1.00;;;;;;5017272;28;20580;-82
2023/09/08 11:39:40;;;;;;;5.80;4.45;;;31.50;1.00;;;;;;5017158;28;20245;-80
2023/09/08 11:42:09;;;;;;;6.07;4.05;;;31.40;1.00;;;;;;5017801;28;20294;-82
2023/09/08 11:44:36;;;;;;;4.55;3.92;;;31.20;1.00;;;;;;5017160;28;20644;-80
2023/09/08 11:47:04;;;;;;;4.20;3.80;;;31.30;1.00;;;;;;5018219;28;20299;-81
2023/09/08 11:49:35;;;;;;;4.95;4.05;;;31.00;1.00;;;;;;5017777;28;20589;-81
2023/09/08 11:52:02;;;;;;;4.43;3.85;;;31.20;1.00;;;;;;5017590;28;20311;-82
2023/09/08 11:54:31;;;;;;;4.07;3.70;;;30.80;1.00;;;;;;5017067;28;20224;-82
2023/09/08 11:57:00;;;;;;;4.72;4.05;;;30.40;1.00;;;;;;5016912;28;20559;-80
2023/09/08 11:59:28;;;;;;;4.50;4.10;;;30.50;1.00;;;;;;5017397;28;20272;-83
2023/09/08 12:01:56;;;;;;;4.78;4.07;;;30.50;1.00;;;;;;5017012;28;20236;-81
2023/09/08 12:04:23;;;;;;;8.05;4.22;;;30.40;1.00;;;;;;5017578;28;20605;-82
2023/09/08 12:06:50;;;;;;;5.15;4.30;;;30.80;1.00;;;;;;5016863;28;20204;-81
2023/09/08 12:09:18;;;;;;;7.70;3.97;;;30.20;1.00;;;;;;5017533;28;20208;-82
2023/09/08 12:11:46;;;;;;;4.60;3.78;;;31.10;1.00;;;;;;5014882;28;20235;-79
2023/09/08 12:14:14;;;;;;;4.57;4.07;;;30.50;1.00;;;;;;5016583;28;20288;-82
2023/09/08 12:16:42;;;;;;;7.28;6.57;;;30.40;1.00;;;;;;5017074;28;20204;-82
2023/09/08 12:19:09;;;;;;;4.22;3.83;;;31.40;1.00;;;;;;5017172;28;20220;-83
2023/09/08 12:21:54;;;;;;;4.38;3.25;;;32.00;1.00;;;;;;5017183;28;20204;-81
2023/09/08 12:24:23;;;;;;;3.40;3.10;;;32.30;1.00;;;;;;5017465;28;20724;-81
2023/09/08 12:26:51;;;;;;;3.75;3.38;;;31.90;1.00;;;;;;5017040;28;20204;-83
2023/09/08 12:29:18;;;;;;;3.58;3.28;;;32.10;1.00;;;;;;5017995;28;20571;-83
2023/09/08 12:31:44;;;;;;;4.65;3.10;;;32.30;99.90;;;;;;5017202;28;20242;-83
2023/09/08 12:34:12;;;;;;;4.10;3.47;;;32.50;99.90;;;;;;5017669;28;20621;-82
2023/09/08 12:36:45;;;;;;;4.43;3.22;;;31.30;99.90;;;;;;5017207;28;20200;-83
2023/09/08 12:39:11;;;;;;;4.43;3.72;;;31.90;99.90;;;;;;5017446;28;20203;-80
2023/09/08 12:41:38;;;;;;;5.55;3.25;;;31.60;99.90;;;;;;5017606;28;20666;-82
2023/09/08 12:44:07;;;;;;;3.75;3.33;;;31.40;99.90;;;;;;5017489;28;20226;-82